Time;durP1;ratioP1;P1;durP2;ratioP2;P2;SDS_P1;SDS_P2;PMS_P1;PMS_P2;Temp;Humidity;BMP_temperature;BMP_pressure;BME280_temperature;BME280_humidity;BME280_pressure;Samples;Min_cycle;Max_cycle;Signal;HPM_P1;HPM_P2
2022/01/03 00:01:05;;;;;;;91.20;83.03;;;10.40;99.90;;;;;;5019166;28;20192;-79
2022/01/03 00:03:31;;;;;;;89.57;81.93;;;10.40;99.90;;;;;;5019532;28;20244;-77
2022/01/03 00:05:57;;;;;;;85.53;78.70;;;10.40;99.90;;;;;;5018845;28;20742;-79
2022/01/03 00:08:24;;;;;;;87.60;80.10;;;10.40;99.90;;;;;;5002319;28;20239;-78
2022/01/03 00:10:51;;;;;;;89.83;82.03;;;10.40;99.90;;;;;;5002366;28;20198;-79
2022/01/03 00:13:19;;;;;;;90.37;82.40;;;10.40;99.90;;;;;;4993195;28;20701;-78
2022/01/03 00:15:45;;;;;;;87.13;80.63;;;10.40;99.90;;;;;;5021784;28;20206;-79
2022/01/03 00:18:12;;;;;;;86.80;79.77;;;10.40;99.90;;;;;;5023687;28;20188;-79
2022/01/03 00:20:39;;;;;;;85.07;79.07;;;10.40;99.90;;;;;;4970751;28;20910;-80
2022/01/03 00:23:08;;;;;;;91.17;83.07;;;10.40;99.90;;;;;;5021310;28;20196;-79
2022/01/03 00:25:41;;;;;;;87.07;79.33;;;10.40;99.90;;;;;;4999936;28;20198;-79
2022/01/03 00:28:14;;;;;;;84.30;78.53;;;10.40;99.90;;;;;;5017970;28;20581;-78
2022/01/03 00:30:43;;;;;;;85.50;78.43;;;10.40;99.90;;;;;;5020484;28;20188;-78
2022/01/03 00:33:10;;;;;;;82.53;76.33;;;10.40;99.90;;;;;;5003156;28;20645;-79
2022/01/03 00:35:37;;;;;;;81.37;74.63;;;10.40;99.90;;;;;;4985817;28;20218;-78
2022/01/03 00:38:04;;;;;;;81.40;75.00;;;10.40;99.90;;;;;;5020655;28;20186;-78
2022/01/03 00:40:31;;;;;;;83.43;76.70;;;10.40;99.90;;;;;;4984929;28;20210;-79
2022/01/03 00:42:56;;;;;;;81.73;74.83;;;10.40;99.90;;;;;;4970286;28;20210;-79
2022/01/03 00:45:22;;;;;;;81.87;73.70;;;10.30;99.90;;;;;;5001199;28;20195;-79
2022/01/03 00:47:47;;;;;;;76.87;70.57;;;10.40;99.90;;;;;;5001670;28;20217;-79
2022/01/03 00:50:16;;;;;;;79.10;72.23;;;10.40;99.90;;;;;;5000930;28;20307;-79
2022/01/03 00:52:43;;;;;;;80.67;72.93;;;10.30;99.90;;;;;;5017812;28;20294;-78
2022/01/03 00:55:09;;;;;;;80.23;73.50;;;10.30;99.90;;;;;;4987333;28;20209;-78
2022/01/03 00:57:40;;;;;;;80.60;74.07;;;10.30;99.90;;;;;;4991171;28;20230;-78
2022/01/03 01:00:09;;;;;;;84.03;76.53;;;10.20;99.90;;;;;;5026553;28;20189;-79
2022/01/03 01:02:37;;;;;;;85.40;77.90;;;10.20;99.90;;;;;;4990717;28;20523;-77
2022/01/03 01:05:05;;;;;;;85.10;78.57;;;10.20;99.90;;;;;;4990915;28;20549;-77
2022/01/03 01:07:32;;;;;;;87.53;79.47;;;10.20;99.90;;;;;;5006395;28;20274;-79
2022/01/03 01:10:02;;;;;;;87.80;80.63;;;10.20;99.90;;;;;;4990757;28;20191;-80
2022/01/03 01:12:30;;;;;;;86.83;79.90;;;10.20;99.90;;;;;;5024393;28;20747;-79
2022/01/03 01:14:55;;;;;;;89.20;81.83;;;10.20;99.90;;;;;;5013533;28;20278;-79
2022/01/03 01:17:25;;;;;;;87.43;80.97;;;10.20;99.90;;;;;;5024175;28;20279;-79
2022/01/03 01:19:51;;;;;;;88.33;80.67;;;10.20;99.90;;;;;;5007241;28;20223;-79
2022/01/03 01:22:19;;;;;;;86.87;79.50;;;10.20;99.90;;;;;;5007092;28;20273;-77
2022/01/03 01:25:00;;;;;;;87.00;79.60;;;10.20;99.90;;;;;;5024721;28;20183;-78
2022/01/03 01:30:11;;;;;;;84.27;78.13;;;10.20;99.90;;;;;;5008790;28;20223;-78
2022/01/03 01:32:41;;;;;;;88.17;80.63;;;10.20;99.90;;;;;;5005724;28;20644;-79
2022/01/03 01:35:08;;;;;;;89.90;81.40;;;10.20;99.90;;;;;;5008317;28;20183;-78
2022/01/03 01:37:35;;;;;;;87.50;80.50;;;10.20;99.90;;;;;;4989276;28;20183;-79
2022/01/03 01:40:02;;;;;;;87.47;80.37;;;10.20;99.90;;;;;;5020828;28;20217;-79
2022/01/03 01:42:30;;;;;;;88.27;80.30;;;10.20;99.90;;;;;;5004222;28;20214;-77
2022/01/03 01:44:59;;;;;;;89.90;82.20;;;10.20;99.90;;;;;;5004397;28;20275;-80
2022/01/03 01:47:27;;;;;;;89.63;82.80;;;10.20;99.90;;;;;;5010430;28;20191;-79
2022/01/03 01:49:55;;;;;;;91.93;83.73;;;10.20;99.90;;;;;;5020254;28;20175;-79
2022/01/03 01:52:24;;;;;;;90.30;83.10;;;10.20;99.90;;;;;;5022651;28;20210;-77
2022/01/03 01:55:03;;;;;;;92.40;84.50;;;10.20;99.90;;;;;;5002701;28;20188;-78
2022/01/03 01:57:58;;;;;;;89.33;81.50;;;10.20;99.90;;;;;;5005959;28;20203;-78
2022/01/03 02:00:24;;;;;;;93.60;85.80;;;10.20;99.90;;;;;;5003706;28;20183;-78
2022/01/03 02:03:01;;;;;;;91.10;83.83;;;10.20;99.90;;;;;;5003868;28;20191;-78
2022/01/03 02:05:39;;;;;;;90.83;83.63;;;10.20;99.90;;;;;;5019256;28;20699;-79
2022/01/03 02:08:11;;;;;;;96.80;87.87;;;10.20;99.90;;;;;;5021209;28;20239;-79
2022/01/03 02:10:38;;;;;;;95.63;87.20;;;10.20;99.90;;;;;;5019265;28;20489;-78
2022/01/03 02:13:04;;;;;;;95.33;86.83;;;10.20;99.90;;;;;;5006042;28;20195;-78
2022/01/03 02:15:32;;;;;;;96.63;88.23;;;10.10;99.90;;;;;;5019089;28;20183;-79
2022/01/03 02:17:57;;;;;;;95.53;87.50;;;10.10;99.90;;;;;;5003955;28;20720;-78
2022/01/03 02:20:26;;;;;;;96.33;88.43;;;10.10;99.90;;;;;;5022952;28;20237;-78
2022/01/03 02:22:52;;;;;;;97.63;89.10;;;10.00;99.90;;;;;;5003641;28;20195;-78
2022/01/03 02:25:20;;;;;;;98.10;89.90;;;10.10;99.90;;;;;;5021002;28;20195;-79
2022/01/03 02:27:47;;;;;;;95.47;88.37;;;10.00;99.90;;;;;;5021966;28;20680;-78
2022/01/03 02:30:17;;;;;;;96.33;87.27;;;10.10;99.90;;;;;;4970339;28;20218;-79
2022/01/03 02:32:44;;;;;;;98.17;89.67;;;10.10;99.90;;;;;;5011302;28;20202;-78
2022/01/03 02:35:11;;;;;;;98.30;88.73;;;10.10;99.90;;;;;;5015873;28;20253;-77
2022/01/03 02:37:42;;;;;;;97.07;88.97;;;10.10;99.90;;;;;;5019609;28;20191;-78
2022/01/03 02:40:11;;;;;;;96.00;88.23;;;10.10;99.90;;;;;;5005009;28;20234;-79
2022/01/03 02:42:40;;;;;;;94.10;87.37;;;10.00;99.90;;;;;;5003577;28;20203;-79
2022/01/03 02:45:08;;;;;;;99.10;90.33;;;10.00;99.90;;;;;;5005050;28;20331;-79
2022/01/03 02:47:35;;;;;;;100.43;90.60;;;10.10;99.90;;;;;;5020191;28;20178;-78
2022/01/03 02:50:01;;;;;;;95.87;87.97;;;10.10;99.90;;;;;;5021271;28;20195;-78
2022/01/03 02:52:27;;;;;;;94.53;86.63;;;10.00;99.90;;;;;;5005298;28;20593;-78
2022/01/03 02:54:53;;;;;;;100.23;90.93;;;10.00;99.90;;;;;;4985939;28;20271;-78
2022/01/03 02:57:23;;;;;;;98.57;90.20;;;10.10;99.90;;;;;;5002027;28;20211;-78
2022/01/03 02:59:56;;;;;;;100.93;91.63;;;10.10;99.90;;;;;;5022683;28;20215;-79
2022/01/03 03:02:23;;;;;;;102.10;92.70;;;10.10;99.90;;;;;;4996852;28;20183;-78
2022/01/03 03:04:58;;;;;;;101.47;92.10;;;10.10;99.90;;;;;;4986893;28;20195;-78
2022/01/03 03:07:27;;;;;;;98.87;89.60;;;10.10;99.90;;;;;;5022175;28;20293;-78
2022/01/03 03:09:53;;;;;;;98.53;89.63;;;10.20;99.90;;;;;;5018339;28;20222;-77
2022/01/03 03:12:19;;;;;;;100.57;91.57;;;10.20;99.90;;;;;;5002794;28;20219;-78
2022/01/03 03:14:45;;;;;;;100.80;91.87;;;10.20;99.90;;;;;;5001646;28;20191;-79
2022/01/03 03:17:11;;;;;;;100.27;91.77;;;10.20;99.90;;;;;;4985813;28;20203;-79
2022/01/03 03:19:50;;;;;;;100.90;92.20;;;10.20;99.90;;;;;;5004781;28;20186;-79
2022/01/03 03:22:16;;;;;;;101.03;92.67;;;10.20;99.90;;;;;;5019355;28;20214;-79
2022/01/03 03:24:42;;;;;;;104.27;94.73;;;10.20;99.90;;;;;;5004139;28;20888;-78
2022/01/03 03:27:12;;;;;;;101.77;92.77;;;10.20;99.90;;;;;;4984274;28;20219;-78
2022/01/03 03:29:49;;;;;;;103.37;94.30;;;10.20;99.90;;;;;;4985151;28;20405;-79
2022/01/03 03:32:19;;;;;;;101.10;92.90;;;10.20;99.90;;;;;;5018694;28;20186;-78
2022/01/03 03:34:49;;;;;;;101.90;92.63;;;10.20;99.90;;;;;;4986845;28;20571;-79
2022/01/03 03:37:17;;;;;;;100.37;91.57;;;10.20;99.90;;;;;;5017971;28;20183;-78
2022/01/03 03:39:44;;;;;;;100.57;91.97;;;10.20;99.90;;;;;;5021047;28;20193;-78
2022/01/03 03:42:10;;;;;;;100.77;91.63;;;10.20;99.90;;;;;;5003548;28;20207;-78
2022/01/03 03:44:36;;;;;;;100.87;92.57;;;10.20;99.90;;;;;;4986488;28;20286;-78
2022/01/03 03:47:04;;;;;;;98.80;89.90;;;10.20;99.90;;;;;;5017490;28;20286;-78
2022/01/03 03:49:30;;;;;;;100.93;92.50;;;10.20;99.90;;;;;;5018806;28;20269;-79
2022/01/03 03:51:56;;;;;;;102.60;92.50;;;10.20;99.90;;;;;;4985321;28;20179;-79
2022/01/03 03:54:21;;;;;;;95.53;87.67;;;10.20;99.90;;;;;;5002900;28;20258;-78
2022/01/03 03:56:47;;;;;;;98.53;89.97;;;10.30;99.90;;;;;;5004093;28;20229;-78
2022/01/03 03:59:13;;;;;;;102.70;93.40;;;10.30;99.90;;;;;;5002041;28;20199;-79
2022/01/03 04:01:38;;;;;;;102.50;92.73;;;10.30;99.90;;;;;;4986036;28;20195;-79
2022/01/03 04:04:04;;;;;;;95.57;88.13;;;10.40;99.90;;;;;;5001401;28;20672;-79
2022/01/03 04:06:30;;;;;;;98.17;90.57;;;10.40;99.90;;;;;;5019719;28;20197;-78
2022/01/03 04:08:55;;;;;;;97.00;88.50;;;10.40;99.90;;;;;;5003744;28;20223;-79
2022/01/03 04:11:21;;;;;;;96.90;88.77;;;10.40;99.90;;;;;;5017307;28;20209;-79
2022/01/03 04:13:47;;;;;;;99.17;90.57;;;10.40;99.90;;;;;;5001193;28;20187;-79
2022/01/03 04:16:13;;;;;;;98.83;89.53;;;10.40;99.90;;;;;;4992514;28;20187;-79
2022/01/03 04:18:39;;;;;;;101.20;91.07;;;10.40;99.90;;;;;;4986372;28;20198;-78
2022/01/03 04:21:05;;;;;;;99.73;90.40;;;10.40;99.90;;;;;;4985735;28;20757;-79
2022/01/03 04:23:30;;;;;;;102.47;92.13;;;10.40;99.90;;;;;;4998625;28;20187;-77
2022/01/03 04:25:57;;;;;;;98.73;90.03;;;10.40;99.90;;;;;;5002722;28;20206;-78
2022/01/03 04:28:23;;;;;;;99.73;90.07;;;10.40;99.90;;;;;;5002911;28;20216;-78
2022/01/03 04:30:51;;;;;;;100.50;90.30;;;10.40;99.90;;;;;;5002258;28;20200;-79
2022/01/03 04:33:17;;;;;;;97.03;88.33;;;10.40;99.90;;;;;;5024372;28;20189;-79
2022/01/03 04:35:43;;;;;;;98.27;89.33;;;10.40;99.90;;;;;;4973879;28;20279;-78
2022/01/03 04:38:08;;;;;;;97.10;88.73;;;10.40;99.90;;;;;;4971659;28;20232;-79
2022/01/03 04:40:34;;;;;;;98.67;90.10;;;10.40;99.90;;;;;;4988401;28;20219;-77
2022/01/03 04:43:00;;;;;;;99.00;90.73;;;10.40;99.90;;;;;;4990601;28;20257;-78
2022/01/03 04:45:25;;;;;;;101.73;92.40;;;10.30;99.90;;;;;;5006136;28;20219;-77
2022/01/03 04:47:51;;;;;;;96.13;87.27;;;10.30;99.90;;;;;;4972970;28;20619;-77
2022/01/03 04:50:17;;;;;;;94.57;86.37;;;10.30;99.90;;;;;;4988706;28;20183;-78
2022/01/03 04:52:42;;;;;;;94.70;86.20;;;10.30;99.90;;;;;;4989431;28;20191;-79
2022/01/03 04:55:09;;;;;;;95.83;86.73;;;10.30;99.90;;;;;;4988450;28;20202;-77
2022/01/03 04:57:35;;;;;;;94.63;86.27;;;10.30;99.90;;;;;;5006316;28;20203;-79
2022/01/03 05:00:01;;;;;;;94.77;86.70;;;10.30;99.90;;;;;;4988655;28;20199;-78
2022/01/03 05:02:27;;;;;;;93.90;86.03;;;10.30;99.90;;;;;;5025411;28;20635;-79
2022/01/03 05:04:52;;;;;;;92.10;84.37;;;10.30;99.90;;;;;;5020938;28;20278;-78
2022/01/03 05:07:18;;;;;;;91.97;83.90;;;10.30;99.90;;;;;;4973785;28;20720;-77
2022/01/03 05:09:44;;;;;;;92.10;83.33;;;10.30;99.90;;;;;;4989465;28;21028;-78
2022/01/03 05:12:11;;;;;;;94.20;86.60;;;10.30;99.90;;;;;;5006934;28;20200;-77
2022/01/03 05:14:36;;;;;;;92.23;84.57;;;10.30;99.90;;;;;;4990752;28;20187;-78
2022/01/03 05:17:02;;;;;;;92.97;84.90;;;10.30;99.90;;;;;;5023701;28;20306;-79
2022/01/03 05:19:28;;;;;;;93.73;86.27;;;10.30;99.90;;;;;;5005889;28;20224;-79
2022/01/03 05:21:54;;;;;;;93.57;85.67;;;10.40;99.90;;;;;;4988401;28;20199;-77
2022/01/03 05:24:21;;;;;;;93.23;84.77;;;10.40;99.90;;;;;;4989967;28;20229;-79
2022/01/03 05:26:46;;;;;;;90.73;83.03;;;10.40;99.90;;;;;;4988567;28;20213;-79
2022/01/03 05:29:12;;;;;;;90.23;83.03;;;10.40;99.90;;;;;;5003322;28;20211;-79
2022/01/03 05:31:38;;;;;;;94.23;85.23;;;10.40;99.90;;;;;;4989666;28;20202;-79
2022/01/03 05:34:03;;;;;;;92.87;85.07;;;10.40;99.90;;;;;;4990480;28;20195;-79
2022/01/03 05:36:29;;;;;;;93.83;84.40;;;10.50;99.90;;;;;;5020125;28;20596;-77
2022/01/03 05:38:55;;;;;;;94.13;84.77;;;10.50;99.90;;;;;;4987071;28;20269;-80
2022/01/03 05:41:21;;;;;;;90.17;81.63;;;10.50;99.90;;;;;;4995731;28;20191;-78
2022/01/03 05:43:49;;;;;;;90.50;81.80;;;10.50;99.90;;;;;;5022001;28;20711;-78
2022/01/03 05:46:15;;;;;;;90.27;81.50;;;10.50;99.90;;;;;;5005427;28;20194;-79
2022/01/03 05:48:41;;;;;;;89.53;81.53;;;10.50;99.90;;;;;;5023316;28;20211;-79
2022/01/03 05:51:06;;;;;;;85.13;78.17;;;10.50;99.90;;;;;;4990067;28;20591;-79
2022/01/03 05:53:32;;;;;;;87.53;79.37;;;10.50;99.90;;;;;;5004651;28;20187;-78
2022/01/03 05:55:59;;;;;;;83.70;75.90;;;10.50;99.90;;;;;;5004773;28;20297;-78
2022/01/03 05:58:25;;;;;;;85.13;78.33;;;10.50;99.90;;;;;;5005183;28;20273;-79
2022/01/03 06:00:51;;;;;;;89.10;80.73;;;10.50;99.90;;;;;;4991168;28;20180;-79
2022/01/03 06:03:20;;;;;;;86.33;78.73;;;10.60;99.90;;;;;;5003291;28;20191;-77
2022/01/03 06:08:21;;;;;;;83.67;76.13;;;10.50;99.90;;;;;;5004536;28;21020;-78
2022/01/03 06:10:47;;;;;;;79.37;73.27;;;10.60;99.90;;;;;;5022876;28;20286;-79
2022/01/03 06:13:14;;;;;;;83.43;75.33;;;10.50;99.90;;;;;;4971645;28;20298;-78
2022/01/03 06:15:41;;;;;;;79.00;71.80;;;10.60;99.90;;;;;;4987096;28;20187;-79
2022/01/03 06:18:11;;;;;;;77.50;71.63;;;10.60;99.90;;;;;;4987052;28;20222;-79
2022/01/03 06:20:42;;;;;;;78.43;71.37;;;10.60;99.90;;;;;;5021568;28;20237;-79
2022/01/03 06:23:09;;;;;;;78.17;70.90;;;10.60;99.90;;;;;;5022582;28;20204;-78
2022/01/03 06:25:36;;;;;;;78.87;71.33;;;10.60;99.90;;;;;;4989273;28;20184;-79
2022/01/03 06:28:06;;;;;;;79.67;72.40;;;10.50;99.90;;;;;;5005817;28;21053;-78
2022/01/03 06:30:33;;;;;;;77.67;70.40;;;10.60;99.90;;;;;;5006504;28;20183;-76
2022/01/03 06:32:59;;;;;;;77.07;69.87;;;10.60;99.90;;;;;;5004520;28;20583;-80
2022/01/03 06:35:25;;;;;;;77.10;69.63;;;10.60;99.90;;;;;;5018589;28;20187;-78
2022/01/03 06:37:50;;;;;;;76.37;69.47;;;10.60;99.90;;;;;;5018559;28;20628;-79
2022/01/03 06:40:16;;;;;;;72.30;65.87;;;10.60;99.90;;;;;;4985323;28;20187;-79
2022/01/03 06:42:42;;;;;;;72.53;66.53;;;10.60;99.90;;;;;;4984618;28;20241;-79
2022/01/03 06:45:08;;;;;;;75.87;69.37;;;10.60;99.90;;;;;;4986647;28;20187;-80
2022/01/03 06:47:34;;;;;;;73.60;66.87;;;10.60;99.90;;;;;;5001193;28;20609;-80
2022/01/03 06:50:00;;;;;;;73.27;67.60;;;10.50;99.90;;;;;;5001972;28;20222;-79
2022/01/03 06:52:25;;;;;;;77.60;69.37;;;10.50;99.90;;;;;;5002213;28;20633;-79
2022/01/03 06:54:51;;;;;;;73.60;67.87;;;10.50;99.90;;;;;;5002454;28;20191;-79
2022/01/03 06:57:18;;;;;;;78.17;70.80;;;10.50;99.90;;;;;;5018877;28;20269;-79
2022/01/03 06:59:44;;;;;;;81.00;73.53;;;10.40;99.90;;;;;;5004878;28;20224;-79
2022/01/03 07:02:10;;;;;;;81.63;74.07;;;10.40;99.90;;;;;;4987580;28;20514;-78
2022/01/03 07:04:35;;;;;;;77.83;71.57;;;10.30;99.90;;;;;;5008863;28;20223;-79
2022/01/03 07:07:01;;;;;;;71.50;65.93;;;10.40;99.90;;;;;;5017420;28;20223;-78
2022/01/03 07:09:27;;;;;;;78.60;72.23;;;10.30;99.90;;;;;;5003555;28;20235;-78
2022/01/03 07:11:52;;;;;;;79.50;72.87;;;10.30;99.90;;;;;;5001464;28;20223;-79
2022/01/03 07:19:46;;;;;;;78.37;71.93;;;10.30;99.90;;;;;;5019809;28;20218;-78
2022/01/03 07:22:12;;;;;;;86.27;77.80;;;10.30;99.90;;;;;;5001712;28;20229;-78
2022/01/03 07:24:39;;;;;;;81.93;75.03;;;10.20;99.90;;;;;;4986042;28;20278;-80
2022/01/03 07:27:07;;;;;;;79.20;72.53;;;10.20;99.90;;;;;;4969866;28;20702;-78
2022/01/03 07:29:33;;;;;;;78.20;71.50;;;10.20;99.90;;;;;;5020705;28;20207;-79
2022/01/03 07:32:00;;;;;;;78.23;71.97;;;10.20;99.90;;;;;;5002008;28;20286;-78
2022/01/03 07:34:26;;;;;;;78.47;71.13;;;10.20;99.90;;;;;;5001155;28;20187;-79
2022/01/03 07:36:52;;;;;;;79.13;71.87;;;10.20;99.90;;;;;;5010153;28;20198;-78
2022/01/03 07:39:18;;;;;;;83.20;75.27;;;10.20;99.90;;;;;;4986532;28;20206;-78
2022/01/03 07:41:44;;;;;;;80.17;73.07;;;10.30;99.90;;;;;;4984755;28;20260;-79
2022/01/03 07:44:09;;;;;;;80.90;74.00;;;10.30;99.90;;;;;;5001872;28;20210;-77
2022/01/03 07:46:35;;;;;;;80.50;74.20;;;10.30;99.90;;;;;;5008533;28;20191;-79
2022/01/03 07:49:01;;;;;;;80.53;73.50;;;10.20;99.90;;;;;;4984864;28;20230;-79
2022/01/03 07:51:27;;;;;;;82.63;74.67;;;10.20;99.90;;;;;;5001840;28;20201;-79
2022/01/03 07:53:53;;;;;;;81.17;74.43;;;10.20;99.90;;;;;;5019051;28;20187;-77
2022/01/03 07:56:18;;;;;;;82.23;74.87;;;10.30;99.90;;;;;;5009253;28;20695;-78
2022/01/03 07:58:45;;;;;;;82.60;74.87;;;10.30;99.90;;;;;;5003088;28;20215;-78
2022/01/03 08:01:11;;;;;;;85.77;78.43;;;10.30;99.90;;;;;;5002479;28;20193;-80
2022/01/03 08:03:38;;;;;;;86.37;78.87;;;10.30;99.90;;;;;;5001653;28;20190;-77
2022/01/03 08:06:08;;;;;;;82.13;76.07;;;10.30;99.90;;;;;;5000715;28;20191;-79
2022/01/03 08:08:35;;;;;;;81.23;74.53;;;10.30;99.90;;;;;;5019643;28;20296;-80
2022/01/03 08:11:01;;;;;;;83.63;75.50;;;10.30;99.90;;;;;;5004720;28;20211;-80
2022/01/03 08:13:26;;;;;;;84.60;76.97;;;10.20;99.90;;;;;;4987126;28;20301;-80
2022/01/03 08:15:52;;;;;;;79.30;71.97;;;10.20;99.90;;;;;;4971162;28;20226;-78
2022/01/03 08:18:18;;;;;;;84.13;76.97;;;10.30;99.90;;;;;;4986071;28;20480;-79
2022/01/03 08:20:43;;;;;;;82.70;75.40;;;10.30;99.90;;;;;;4985287;28;20187;-79
2022/01/03 08:23:09;;;;;;;84.43;76.93;;;10.30;99.90;;;;;;4970470;28;20187;-78
2022/01/03 08:25:37;;;;;;;77.20;70.63;;;10.30;99.90;;;;;;4986123;28;20932;-79
2022/01/03 08:28:08;;;;;;;84.53;77.27;;;10.30;99.90;;;;;;4985318;28;20215;-78
2022/01/03 08:30:35;;;;;;;85.43;77.67;;;10.20;99.90;;;;;;5018650;28;20249;-79
2022/01/03 08:33:02;;;;;;;83.87;75.13;;;10.20;99.90;;;;;;5003220;28;21182;-79
2022/01/03 08:35:29;;;;;;;85.87;78.43;;;10.20;99.90;;;;;;5000439;28;20224;-78
2022/01/03 08:37:54;;;;;;;84.53;77.23;;;10.20;99.90;;;;;;5001656;28;20289;-79
2022/01/03 08:40:20;;;;;;;82.37;75.00;;;10.20;99.90;;;;;;4986596;28;20191;-79
2022/01/03 08:42:46;;;;;;;82.00;74.90;;;10.30;99.90;;;;;;4999741;28;20207;-79
2022/01/03 08:45:12;;;;;;;83.50;76.20;;;10.30;99.90;;;;;;5018320;28;20191;-80
2022/01/03 08:47:38;;;;;;;82.73;75.40;;;10.30;99.90;;;;;;5019457;28;20674;-79
2022/01/03 08:50:06;;;;;;;83.57;76.23;;;10.30;99.90;;;;;;4977217;28;20179;-80
2022/01/03 08:52:32;;;;;;;82.27;75.50;;;10.40;99.90;;;;;;4984934;28;20179;-79
2022/01/03 08:54:58;;;;;;;82.00;75.50;;;10.30;99.90;;;;;;5001626;28;20191;-79
2022/01/03 08:57:25;;;;;;;85.77;77.17;;;10.40;99.90;;;;;;5003033;28;20218;-79
2022/01/03 08:59:51;;;;;;;85.93;78.30;;;10.30;99.90;;;;;;5018135;28;20281;-78
2022/01/03 09:02:17;;;;;;;84.87;77.17;;;10.30;99.90;;;;;;4983250;28;20192;-78
2022/01/03 09:04:46;;;;;;;81.47;74.37;;;10.30;99.90;;;;;;4998588;28;20183;-79
2022/01/03 09:07:13;;;;;;;82.77;75.33;;;10.30;99.90;;;;;;5016545;28;20194;-79
2022/01/03 09:09:39;;;;;;;86.10;78.57;;;10.30;99.90;;;;;;5019288;28;20239;-78
2022/01/03 09:12:08;;;;;;;85.17;78.07;;;10.20;99.90;;;;;;4982889;28;20208;-78
2022/01/03 09:14:35;;;;;;;88.70;80.93;;;10.30;99.90;;;;;;5002254;28;20199;-79
2022/01/03 09:17:01;;;;;;;87.13;79.40;;;10.20;99.90;;;;;;5021017;28;20206;-79
2022/01/03 09:19:27;;;;;;;84.13;76.27;;;10.30;99.90;;;;;;5020476;28;20278;-79
2022/01/03 09:22:05;;;;;;;85.47;77.67;;;10.30;99.90;;;;;;4987776;28;20301;-79
2022/01/03 09:24:45;;;;;;;87.40;79.87;;;10.30;99.90;;;;;;4976862;28;20237;-80
2022/01/03 09:29:57;;;;;;;83.60;77.00;;;10.20;99.90;;;;;;5022774;28;20268;-80
2022/01/03 09:32:23;;;;;;;87.93;79.30;;;10.20;99.90;;;;;;4988032;28;21149;-80
2022/01/03 09:34:49;;;;;;;84.27;76.43;;;10.20;99.90;;;;;;5002575;28;20206;-80
2022/01/03 09:37:20;;;;;;;85.07;78.33;;;10.20;99.90;;;;;;4992616;28;20245;-79
2022/01/03 09:39:49;;;;;;;81.87;75.53;;;10.20;99.90;;;;;;4988637;28;20709;-80
2022/01/03 09:42:26;;;;;;;84.77;76.77;;;10.20;99.90;;;;;;5019674;28;20732;-80
2022/01/03 09:44:51;;;;;;;81.67;73.80;;;10.20;99.90;;;;;;5018131;28;20190;-79
2022/01/03 09:47:19;;;;;;;82.43;75.10;;;10.30;99.90;;;;;;5007755;28;20191;-78
2022/01/03 09:49:46;;;;;;;82.97;75.43;;;10.30;99.90;;;;;;5005773;28;20214;-80
2022/01/03 09:52:14;;;;;;;83.30;75.33;;;10.40;99.90;;;;;;5006368;28;20277;-78
2022/01/03 09:54:40;;;;;;;81.87;75.60;;;10.40;99.90;;;;;;5001630;28;20209;-80
2022/01/03 09:57:06;;;;;;;86.77;78.63;;;10.40;99.90;;;;;;5020281;28;20213;-79
2022/01/03 09:59:34;;;;;;;82.03;75.07;;;10.40;99.90;;;;;;5004025;28;20180;-80
2022/01/03 10:02:03;;;;;;;80.83;73.83;;;10.50;99.90;;;;;;4987177;28;20275;-79
2022/01/03 10:04:28;;;;;;;80.27;73.93;;;10.50;99.90;;;;;;5002481;28;20196;-78
2022/01/03 10:06:55;;;;;;;78.40;72.27;;;10.60;99.90;;;;;;5021504;28;20221;-78
2022/01/03 10:09:23;;;;;;;78.57;71.70;;;10.70;99.90;;;;;;5021013;28;20253;-79
2022/01/03 10:11:49;;;;;;;75.07;69.53;;;10.80;99.90;;;;;;5020473;28;20196;-79
2022/01/03 10:14:16;;;;;;;74.73;68.13;;;10.90;99.90;;;;;;4986467;28;20191;-79
2022/01/03 10:16:43;;;;;;;75.57;70.30;;;10.90;99.90;;;;;;5002018;28;20550;-78
2022/01/03 10:19:09;;;;;;;73.10;66.27;;;10.90;99.90;;;;;;5003568;28;20282;-80
2022/01/03 10:21:42;;;;;;;71.20;65.07;;;10.90;99.90;;;;;;4970101;28;20708;-79
2022/01/03 10:24:11;;;;;;;70.73;64.97;;;11.00;99.90;;;;;;5002806;28;20203;-78
2022/01/03 10:26:38;;;;;;;70.03;63.70;;;11.00;99.90;;;;;;4985359;28;20219;-78
2022/01/03 10:29:24;;;;;;;69.27;63.50;;;11.10;99.90;;;;;;4984460;28;20211;-79
2022/01/03 10:31:53;;;;;;;67.70;61.37;;;11.10;99.90;;;;;;5019610;28;20188;-78
2022/01/03 10:34:21;;;;;;;70.60;63.57;;;11.20;99.90;;;;;;5010588;28;20219;-79
2022/01/03 10:36:48;;;;;;;64.17;57.93;;;11.20;99.90;;;;;;5003462;28;20196;-79
2022/01/03 10:39:20;;;;;;;63.30;57.30;;;11.30;99.90;;;;;;5020284;28;20203;-79
2022/01/03 10:41:48;;;;;;;60.97;55.77;;;11.30;99.90;;;;;;5003693;28;20230;-79
2022/01/03 10:44:33;;;;;;;57.17;51.90;;;11.50;99.90;;;;;;5004604;28;20303;-79
2022/01/03 10:46:59;;;;;;;60.77;51.47;;;11.60;99.90;;;;;;5021545;28;20664;-80
2022/01/03 10:49:26;;;;;;;55.50;50.23;;;11.50;99.90;;;;;;4985906;28;20234;-79
2022/01/03 10:52:09;;;;;;;54.40;49.30;;;11.50;99.90;;;;;;5002713;28;20661;-79
2022/01/03 10:54:34;;;;;;;55.17;49.87;;;11.40;99.90;;;;;;5022938;28;20267;-79
2022/01/03 10:57:00;;;;;;;52.27;47.23;;;11.40;99.90;;;;;;5010088;28;20651;-79
2022/01/03 10:59:30;;;;;;;54.57;48.57;;;11.30;99.90;;;;;;4968954;28;20197;-78
2022/01/03 11:02:00;;;;;;;54.60;49.07;;;11.40;99.90;;;;;;5019006;28;20648;-79
2022/01/03 11:04:53;;;;;;;52.23;46.87;;;11.40;99.90;;;;;;5020592;28;20293;-79
2022/01/03 11:13:20;;;;;;;49.90;44.47;;;11.40;99.90;;;;;;5019548;28;20241;-80
2022/01/03 11:15:53;;;;;;;50.27;44.53;;;11.50;99.90;;;;;;5009567;28;20184;-78
2022/01/03 11:18:24;;;;;;;48.93;42.70;;;11.50;99.90;;;;;;5019378;28;20259;-79
2022/01/03 11:21:09;;;;;;;45.57;41.17;;;11.60;99.90;;;;;;5004087;28;20198;-80
2022/01/03 11:23:35;;;;;;;45.40;41.10;;;11.60;99.90;;;;;;5022181;28;20607;-79
2022/01/03 11:26:21;;;;;;;43.77;39.43;;;11.60;99.90;;;;;;5000434;28;20279;-80
2022/01/03 11:28:48;;;;;;;48.97;41.50;;;11.60;99.90;;;;;;5005124;28;20211;-79
2022/01/03 11:31:17;;;;;;;45.43;39.03;;;11.60;99.90;;;;;;5019937;28;20221;-79
2022/01/03 11:33:46;;;;;;;48.27;38.07;;;11.60;99.90;;;;;;5019995;28;20657;-79
2022/01/03 11:36:11;;;;;;;41.73;37.87;;;11.70;99.90;;;;;;5019236;28;20682;-79
2022/01/03 11:38:40;;;;;;;42.07;36.43;;;11.80;99.90;;;;;;5003358;28;20185;-79
2022/01/03 11:41:09;;;;;;;39.53;35.27;;;11.80;99.90;;;;;;5017717;28;20192;-79
2022/01/03 11:43:36;;;;;;;40.60;35.07;;;11.70;99.90;;;;;;5007156;28;20208;-81
2022/01/03 11:46:03;;;;;;;42.93;34.47;;;11.60;99.90;;;;;;5004626;28;20197;-79
2022/01/03 11:48:29;;;;;;;36.67;33.07;;;11.60;99.90;;;;;;4988508;28;20604;-79
2022/01/03 11:50:57;;;;;;;40.60;36.40;;;11.50;99.90;;;;;;5003787;28;20204;-79
2022/01/03 11:53:23;;;;;;;36.60;32.97;;;11.40;99.90;;;;;;4985532;28;20212;-79
2022/01/03 11:56:01;;;;;;;38.93;35.13;;;11.40;99.90;;;;;;4986095;28;20674;-78
2022/01/03 12:04:01;;;;;;;38.60;34.50;;;11.30;99.90;;;;;;5004870;28;20211;-79
2022/01/03 12:06:32;;;;;;;39.20;34.97;;;11.20;99.90;;;;;;5019819;28;20194;-80
2022/01/03 12:09:04;;;;;;;38.87;35.20;;;11.20;99.90;;;;;;5000883;28;20244;-79
2022/01/03 12:11:31;;;;;;;41.70;37.40;;;11.20;99.90;;;;;;5003526;28;20200;-79
2022/01/03 12:14:04;;;;;;;39.07;34.97;;;11.20;99.90;;;;;;5002556;28;20276;-79
2022/01/03 12:16:50;;;;;;;40.40;33.47;;;11.30;99.90;;;;;;5021075;28;20413;-78
2022/01/03 12:19:46;;;;;;;37.70;33.77;;;11.20;99.90;;;;;;5001362;28;20197;-78
2022/01/03 12:22:17;;;;;;;37.37;33.83;;;11.30;99.90;;;;;;4993716;28;20200;-78
2022/01/03 12:24:53;;;;;;;37.27;33.47;;;11.30;99.90;;;;;;5018554;28;20671;-79
2022/01/03 12:27:19;;;;;;;37.97;34.20;;;11.30;99.90;;;;;;5009122;28;20226;-80
2022/01/03 12:29:54;;;;;;;37.80;33.97;;;11.30;99.90;;;;;;5021007;28;20208;-79
2022/01/03 12:32:30;;;;;;;35.97;32.30;;;11.30;99.90;;;;;;5019091;28;20183;-79
2022/01/03 12:35:16;;;;;;;38.47;33.20;;;11.20;99.90;;;;;;5018982;28;20190;-79
2022/01/03 12:37:47;;;;;;;36.23;33.30;;;11.30;99.90;;;;;;5016927;28;20193;-79
2022/01/03 12:40:31;;;;;;;37.53;33.47;;;11.30;99.90;;;;;;5022601;28;20184;-79
2022/01/03 12:42:58;;;;;;;38.97;31.30;;;11.30;99.90;;;;;;5000716;28;20430;-78
2022/01/03 12:45:30;;;;;;;35.13;31.40;;;11.30;99.90;;;;;;5018717;28;20180;-80
2022/01/03 12:48:11;;;;;;;34.73;31.27;;;11.30;99.90;;;;;;5017049;28;20627;-78
2022/01/03 12:50:52;;;;;;;34.57;30.40;;;11.30;99.90;;;;;;5018985;28;20250;-81
2022/01/03 12:53:27;;;;;;;30.57;27.97;;;11.30;99.90;;;;;;5021641;28;20207;-78
2022/01/03 12:55:54;;;;;;;32.47;28.97;;;11.30;99.90;;;;;;5020398;28;20200;-79